Date,TemperatureHighF,TemperatureAvgF,TemperatureLowF,DewpointHighF,DewpointAvgF,DewpointLowF,HumidityHigh,HumidityAvg,HumidityLow,PressureMaxIn,PressureMinIn,WindSpeedMaxMPH,WindSpeedAvgMPH,GustSpeedMaxMPH,PrecipitationSumIn
2013-1-1,49.5,37.3,26.8,25.8,18.3,11.6,78,50,24,30.10,30.01,11,3,20,0.00
2013-1-2,55.6,40.0,26.2,38.4,17.1,10.0,77,42,17,30.08,29.61,8,2,14,0.00
2013-1-3,56.7,38.3,25.2,17.4,11.5,-0.8,64,37,11,29.99,29.86,8,3,15,0.00
2013-1-4,56.3,37.9,24.3,17.2,10.0,0.7,57,35,11,30.03,29.91,4,2,8,0.00
2013-1-5,55.0,40.6,26.6,18.4,10.2,0.5,53,31,11,30.04,29.85,10,2,15,0.00
2013-1-6,51.6,43.5,38.3,37.4,31.5,13.6,81,64,25,29.85,29.71,15,6,23,0.00
2013-1-7,59.5,42.4,30.7,33.9,25.7,15.5,89,57,20,29.86,29.75,8,2,12,0.00
2013-1-8,66.9,48.0,34.3,29.3,25.0,18.9,57,42,22,29.93,29.81,7,2,10,0.00
2013-1-9,65.3,51.1,39.4,36.4,31.5,27.8,66,49,28,29.93,29.64,10,2,16,0.00
2013-1-10,46.9,39.0,33.1,39.8,27.1,19.9,87,63,43,29.76,29.61,21,10,32,0.02
2013-1-11,44.4,35.2,29.7,23.4,20.3,14.1,69,55,41,29.85,29.74,20,8,30,0.00
2013-1-12,48.2,33.6,24.1,22.2,14.7,7.7,75,48,22,29.92,29.74,10,2,17,0.00
2013-1-13,47.3,31.2,19.2,16.5,12.4,5.6,71,48,22,29.88,29.73,14,3,23,0.00
2013-1-14,42.4,28.1,17.1,5.8,-1.9,-11.5,53,30,11,30.05,29.87,9,2,16,0.00
2013-1-15,53.8,34.5,21.4,10.8,3.8,-3.6,40,28,14,30.19,30.04,9,3,17,0.00
2013-1-16,60.1,40.2,26.8,19.8,13.8,6.4,50,35,19,30.15,30.01,8,2,15,0.00
2013-1-17,65.3,44.8,30.0,20.2,11.8,1.4,54,31,10,30.07,29.94,11,2,16,0.00
2013-1-18,64.0,44.7,31.1,14.5,8.6,2.1,42,26,10,30.02,29.91,8,2,14,0.00
2013-1-19,66.0,44.6,28.4,13.9,7.9,0.7,44,25,10,30.05,29.92,7,2,11,0.00
2013-1-20,73.0,44.5,29.7,13.9,6.7,0.3,40,24,10,30.00,29.87,8,2,13,0.00
2013-1-21,69.1,46.9,30.0,10.0,4.7,-6.2,38,20,10,29.96,29.86,8,2,14,0.00
2013-1-22,67.8,48.2,31.5,9.8,5.1,-0.5,34,19,10,29.95,29.84,4,2,8,0.00
2013-1-23,64.6,52.3,41.9,32.6,11.8,4.6,45,21,10,29.91,29.80,4,2,8,0.00
2013-1-24,57.6,50.9,45.1,49.7,45.0,32.5,91,81,45,29.94,29.83,6,2,11,0.30
2013-1-25,52.2,49.5,47.3,48.5,46.8,44.2,96,90,85,29.94,29.75,5,1,8,0.24
2013-1-26,65.1,53.6,48.9,54.1,48.5,43.0,98,84,58,29.75,29.61,14,3,21,0.07
2013-1-27,50.7,44.3,38.1,46.5,34.1,24.9,86,68,49,29.73,29.66,18,8,28,0.00
2013-1-28,50.2,40.6,35.6,28.3,25.6,23.5,66,55,39,29.88,29.72,20,8,29,0.00
2013-1-29,63.3,46.9,36.5,31.7,28.9,25.7,66,51,29,29.95,29.80,14,5,25,0.00
2013-1-30,66.4,48.7,34.0,35.5,31.1,27.7,80,54,26,30.07,29.95,6,2,8,0.00
2013-1-31,69.1,51.4,37.2,35.6,31.7,28.3,73,50,24,30.02,29.89,6,2,10,0.00
2013-2-1,69.3,52.3,37.0,36.2,32.2,28.7,74,49,26,29.97,29.89,4,2,9,0.00
2013-2-2,66.2,54.6,45.5,43.4,34.8,31.3,72,49,29,30.02,29.92,8,2,11,0.02
2013-2-3,70.3,56.5,44.4,44.6,35.5,24.0,79,49,22,29.93,29.77,10,2,14,0.01
2013-2-4,72.1,55.8,42.8,33.8,27.1,19.2,55,35,14,29.87,29.75,7,2,11,0.00
2013-2-5,73.2,57.2,44.8,41.1,30.3,21.3,71,38,15,29.77,29.66,16,6,27,0.00
2013-2-6,70.7,53.4,40.8,39.0,21.5,-4.4,69,35,10,29.81,29.71,16,4,25,0.00
2013-2-7,67.3,48.6,35.2,40.9,24.5,-0.2,74,43,14,29.81,29.64,16,4,27,0.00
2013-2-8,50.4,39.6,33.8,35.1,30.8,26.2,87,71,45,29.65,29.54,16,7,26,0.04
2013-2-9,55.0,41.9,33.6,30.2,27.1,20.3,77,58,27,29.75,29.60,17,8,25,0.00
2013-2-10,57.7,43.5,33.1,35.2,28.2,19.4,79,57,26,29.75,29.67,16,5,21,0.00
2013-2-11,55.2,40.8,27.3,29.9,13.5,-2.6,79,40,10,29.94,29.75,11,2,17,0.00
2013-2-12,62.4,43.1,27.5,15.6,9.0,2.3,44,27,10,30.04,29.93,8,2,11,0.00
2013-2-13,69.3,48.2,32.5,27.8,17.7,7.9,61,34,10,30.00,29.87,6,2,10,0.00
2013-2-14,70.2,51.6,36.0,26.6,21.0,6.7,55,33,13,29.98,29.87,11,3,20,0.00
2013-2-15,70.2,52.4,35.1,26.8,16.9,3.8,59,29,10,30.03,29.96,14,4,24,0.00
2013-2-16,70.2,52.8,37.4,20.9,15.0,8.2,44,25,10,30.02,29.74,7,2,11,0.00
2013-2-17,72.0,56.8,44.2,34.3,19.1,8.6,50,26,10,29.74,29.63,18,6,27,0.00
2013-2-18,70.5,53.5,41.5,34.0,29.0,14.0,69,41,18,29.75,29.60,15,4,30,0.00
2013-2-19,53.8,43.3,34.3,39.8,33.7,28.4,89,70,48,29.62,29.39,18,6,26,0.25
2013-2-20,52.2,39.7,32.0,30.5,25.9,22.0,84,59,33,29.67,29.38,21,11,30,0.00
2013-2-21,57.0,43.9,34.7,30.2,23.8,12.3,65,48,18,29.81,29.66,17,5,23,0.00
2013-2-22,70.0,47.6,31.1,28.6,22.4,11.9,63,41,12,29.90,29.81,13,3,18,0.00
2013-2-23,65.3,51.6,39.0,35.9,28.2,19.6,66,41,27,29.85,29.62,28,10,36,0.00
2013-2-24,58.1,44.3,33.1,28.8,5.0,-7.3,67,23,10,29.93,29.80,17,5,27,0.00
2013-2-25,72.5,50.7,33.8,20.2,9.2,-0.1,30,20,10,29.94,29.76,18,5,28,0.00
2013-2-26,67.8,49.7,33.6,28.9,14.1,1.2,62,28,10,29.91,29.77,13,3,22,0.00
2013-2-27,66.9,48.4,35.1,12.0,6.5,-0.1,33,20,10,30.05,29.91,10,3,17,0.00
2013-2-28,72.9,51.4,33.4,20.2,10.9,-0.6,43,22,10,30.12,30.03,7,2,11,0.00
2013-3-1,79.0,57.1,36.1,27.5,17.9,9.2,53,25,10,30.12,29.97,11,2,19,0.00
2013-3-2,80.6,61.1,42.3,25.9,19.2,12.5,44,22,10,30.03,29.84,16,4,22,0.00
2013-3-3,72.9,61.2,51.4,39.6,28.5,13.2,61,32,15,29.85,29.69,17,7,29,0.00
2013-3-4,77.7,59.1,47.8,44.0,38.1,23.6,68,49,15,29.80,29.71,19,5,25,0.00
2013-3-5,72.1,55.5,44.6,45.2,40.4,33.2,79,60,25,29.79,29.67,16,5,27,0.00
2013-3-6,58.5,48.2,42.4,43.4,39.0,34.4,83,71,52,29.78,29.67,21,7,34,0.00
2013-3-7,55.9,46.8,42.1,41.0,37.4,32.4,87,71,48,29.69,29.54,17,5,25,0.01
2013-3-8,52.3,42.6,36.0,38.3,35.2,32.3,91,75,57,29.69,29.48,15,6,22,0.27
2013-3-9,63.1,47.9,38.7,36.8,32.5,28.1,78,57,32,29.94,29.69,17,7,26,0.00
2013-3-10,72.5,52.4,34.9,31.9,20.5,7.9,70,36,10,30.04,29.92,10,3,16,0.00
2013-3-11,81.3,57.8,36.5,31.5,22.7,12.2,57,30,10,29.96,29.79,8,2,11,0.00
2013-3-12,87.1,63.1,41.4,28.8,23.2,14.5,52,25,10,29.90,29.79,7,2,10,0.00
2013-3-13,88.5,66.9,47.8,31.9,23.2,16.6,40,21,10,29.96,29.83,11,2,17,0.00
2013-3-14,93.9,69.8,50.7,33.8,27.0,20.3,42,22,10,29.93,29.78,14,3,19,0.00
2013-3-15,89.4,72.1,60.1,40.1,29.7,19.7,39,23,10,29.81,29.67,17,6,25,0.00
2013-3-16,84.2,68.6,59.0,37.6,26.2,14.7,40,22,10,29.72,29.63,22,9,33,0.00
2013-3-17,84.2,65.4,55.0,42.4,25.7,8.0,54,26,10,29.75,29.64,20,9,28,0.00
2013-3-18,81.9,64.1,49.8,44.5,25.8,10.0,58,26,10,29.79,29.69,19,6,27,0.00
2013-3-19,82.9,66.0,53.1,40.4,28.5,16.9,40,26,11,29.83,29.74,15,8,24,0.00
2013-3-20,79.5,64.0,53.8,41.6,35.3,19.9,53,36,14,29.81,29.71,19,8,30,0.00
2013-3-21,81.9,62.3,50.9,43.4,32.0,4.6,70,39,10,29.72,29.55,26,9,33,0.00
2013-3-22,78.8,57.9,43.3,38.6,25.9,8.5,61,34,10,29.69,29.57,24,8,34,0.00
2013-3-23,78.8,58.6,40.5,26.4,14.1,1.6,38,20,10,29.80,29.67,13,3,27,0.00
2013-3-24,82.4,62.8,43.5,24.2,11.4,-7.3,23,14,10,29.80,29.65,13,4,17,0.00
2013-3-25,82.6,65.5,51.1,32.6,21.6,10.7,32,19,10,29.73,29.63,16,5,23,0.00
2013-3-26,81.7,65.6,53.1,42.7,29.4,14.1,53,29,10,29.68,29.62,14,6,21,0.00
2013-3-27,75.6,62.2,54.7,46.9,41.0,36.7,68,48,27,29.75,29.62,17,8,27,0.00
2013-3-28,80.2,63.4,51.1,47.6,40.4,29.7,75,47,17,29.80,29.71,16,5,24,0.00
2013-3-29,86.4,66.0,48.7,43.9,38.5,29.5,66,40,15,29.84,29.75,19,4,26,0.00
2013-3-30,80.6,66.0,54.9,39.9,33.2,18.0,50,32,11,29.81,29.73,19,5,29,0.00
2013-3-31,64.6,56.0,49.5,49.8,44.2,30.4,84,65,39,29.83,29.73,16,6,24,0.00
2013-4-1,71.4,55.9,44.1,45.5,42.3,38.5,82,63,33,29.85,29.76,17,8,24,0.00
2013-4-2,83.1,62.4,49.3,44.1,36.9,28.0,72,43,15,29.82,29.72,16,5,24,0.00
2013-4-3,89.6,67.7,51.1,38.1,31.6,19.9,47,29,10,29.84,29.73,17,4,27,0.00
2013-4-4,81.0,67.7,57.2,48.8,35.3,10.6,68,33,12,29.81,29.72,16,6,24,0.00
2013-4-5,77.7,62.6,53.4,47.0,41.5,28.0,73,48,27,29.79,29.72,19,10,30,0.00
2013-4-6,80.6,62.8,51.8,44.6,38.0,28.9,68,43,17,29.81,29.69,20,12,30,0.00
2013-4-7,80.2,63.3,52.7,42.8,36.1,21.3,67,41,14,29.73,29.55,22,11,33,0.00
2013-4-8,59.2,51.6,46.8,41.7,34.3,24.9,76,52,38,29.58,29.42,30,14,45,0.00
2013-4-9,74.1,55.8,43.0,33.0,21.6,9.0,59,31,10,29.80,29.58,17,6,27,0.00
2013-4-10,83.8,62.4,41.5,27.9,19.8,9.0,44,22,10,29.89,29.74,15,4,22,0.00
2013-4-11,84.4,69.6,60.6,43.7,35.6,26.6,53,31,13,29.74,29.50,17,9,24,0.00
2013-4-12,91.4,69.7,54.0,43.9,37.3,23.7,57,35,10,29.63,29.51,17,4,22,0.00
2013-4-13,83.7,68.3,55.9,45.9,39.2,25.7,64,38,14,29.61,29.49,23,8,30,0.00
2013-4-14,78.3,60.9,48.9,48.7,44.0,34.1,79,57,21,29.55,29.47,26,15,40,0.00
2013-4-15,66.2,55.0,46.6,49.2,42.0,37.8,81,63,39,29.56,29.47,21,9,35,0.00
2013-4-16,60.8,49.7,39.0,40.6,26.7,18.0,81,43,24,29.73,29.54,22,10,33,0.00
2013-4-17,72.7,53.9,40.3,24.6,17.6,5.0,50,28,10,29.90,29.73,11,5,17,0.00
2013-4-18,75.2,56.1,37.9,21.2,11.2,-0.6,40,19,10,30.00,29.90,14,3,21,0.00
2013-4-19,84.6,64.6,44.8,34.5,18.0,10.8,44,19,10,29.96,29.74,17,4,24,0.00
2013-4-20,91.2,72.1,53.6,40.9,27.6,19.1,41,21,10,29.79,29.67,19,5,31,0.00
2013-4-21,92.1,72.8,54.9,33.8,25.8,15.8,35,19,10,29.77,29.67,18,6,25,0.00
2013-4-22,90.7,74.0,61.7,43.3,30.6,12.4,47,23,10,29.73,29.57,24,10,31,0.00
2013-4-23,86.0,71.0,58.8,42.6,28.6,11.2,52,25,10,29.74,29.58,21,6,27,0.00
2013-4-24,86.9,66.9,52.3,49.1,37.6,20.2,73,38,10,29.66,29.53,29,7,36,0.00
2013-4-25,80.8,62.9,51.8,44.5,41.8,30.6,75,49,17,29.79,29.59,24,14,36,0.00
2013-4-26,94.5,71.4,56.1,44.9,37.5,21.9,61,35,10,29.88,29.69,21,7,30,0.00
2013-4-27,96.1,77.4,59.4,41.9,31.0,20.0,36,21,10,29.91,29.77,16,5,22,0.00
2013-4-28,99.0,81.0,67.8,43.9,31.1,10.8,31,18,10,29.78,29.62,16,6,24,0.00
2013-4-29,96.8,79.4,65.7,47.4,26.6,12.4,44,16,10,29.65,29.52,19,6,29,0.00
2013-4-30,88.5,72.0,57.2,48.8,42.4,35.1,69,37,16,29.57,29.49,25,13,33,0.00
2013-5-1,86.2,70.4,53.8,46.7,26.1,7.2,69,27,10,29.89,29.57,22,7,29,0.00
2013-5-2,85.6,68.1,52.2,21.9,9.6,-2.9,11,10,10,30.03,29.88,20,5,33,0.00
2013-5-3,96.3,72.2,48.7,30.7,13.4,-5.4,19,10,10,29.88,29.59,17,4,23,0.00
2013-5-4,85.5,73.4,60.8,38.8,24.5,11.8,36,17,10,29.59,29.43,21,10,34,0.00
2013-5-5,65.5,56.9,49.1,45.3,41.9,23.2,78,59,23,29.63,29.46,18,6,33,0.00
2013-5-6,65.7,54.7,49.6,50.7,45.7,41.1,90,72,51,29.70,29.59,20,6,30,0.18
2013-5-7,70.2,57.6,49.1,45.4,43.0,40.8,80,60,37,29.75,29.68,18,8,28,0.00
2013-5-8,75.9,61.0,50.9,47.7,44.5,41.4,74,56,34,29.80,29.73,23,8,28,0.00
2013-5-9,81.0,65.8,54.1,49.6,46.1,39.6,71,52,26,29.82,29.72,15,6,30,0.00
2013-5-10,92.5,74.1,55.6,52.4,43.7,29.3,70,39,11,29.86,29.75,13,4,21,0.00
2013-5-11,97.0,80.9,63.0,49.7,39.9,29.2,45,26,10,29.88,29.77,13,4,17,0.00
2013-5-12,100.8,84.9,72.5,50.6,38.8,25.1,38,22,10,29.88,29.75,17,5,24,0.00
2013-5-13,101.1,85.7,70.7,49.6,35.5,25.0,35,19,10,29.80,29.71,17,6,28,0.00
2013-5-14,89.4,78.6,68.0,40.8,28.0,13.6,36,17,10,29.73,29.64,21,7,30,0.00
2013-5-15,90.3,74.7,63.1,50.9,43.3,35.9,58,35,15,29.72,29.65,21,12,28,0.00
2013-5-16,83.7,69.5,58.3,51.1,45.0,36.9,72,43,24,29.69,29.61,17,9,25,0.00
2013-5-17,79.2,65.7,56.5,51.2,46.1,42.1,66,51,28,29.71,29.62,21,10,30,0.00
2013-5-18,88.9,70.6,55.8,43.0,27.5,11.7,56,25,10,29.76,29.69,17,8,27,0.00
2013-5-19,91.8,73.8,60.6,39.7,27.8,15.6,41,20,10,29.75,29.66,19,8,31,0.00
2013-5-20,94.5,75.3,55.2,44.1,31.6,18.4,47,24,10,29.80,27.47,17,4,22,0.00
2013-5-21,91.6,77.1,64.2,47.2,34.2,24.1,43,23,10,29.71,29.57,20,6,27,0.00
2013-5-22,81.7,68.6,54.3,51.7,38.3,23.4,62,35,15,29.59,29.50,19,7,26,0.00
2013-5-23,78.4,62.9,50.0,47.2,34.5,16.6,63,37,17,29.66,29.54,17,7,25,0.00
2013-5-24,81.1,65.5,51.1,43.6,33.4,20.7,53,33,11,29.69,29.60,21,7,30,0.00
2013-5-25,81.1,66.2,54.5,46.7,39.3,21.6,61,40,17,29.71,29.65,17,9,27,0.00
2013-5-26,82.4,67.2,55.4,49.0,42.7,33.8,63,43,20,29.74,29.68,20,9,30,0.00
2013-5-27,86.7,70.7,58.5,44.1,35.6,22.5,56,32,10,29.72,29.62,20,11,34,0.00
2013-5-28,78.6,67.4,58.1,48.8,43.8,27.2,65,44,19,29.64,29.48,33,13,49,0.06
2013-5-29,85.3,72.0,61.5,48.8,42.5,28.6,61,36,17,29.62,29.50,27,12,39,0.00
2013-5-30,98.1,78.4,63.3,45.2,32.1,13.3,45,21,10,29.65,29.56,20,8,31,0.00
2013-5-31,101.1,82.1,62.4,49.8,31.1,20.2,41,18,10,29.70,29.60,20,4,27,0.00
2013-6-1,104.9,85.2,64.6,47.7,36.0,23.3,42,20,10,29.68,29.55,13,4,21,0.00
2013-6-2,96.3,83.7,72.0,46.3,37.7,26.6,37,20,11,29.57,29.45,23,9,36,0.00
2013-6-3,92.7,78.4,66.9,46.8,40.7,30.0,48,27,15,29.59,29.48,22,9,31,0.00
2013-6-4,96.4,78.1,64.0,48.0,35.3,16.7,53,25,10,29.66,29.56,25,10,32,0.00
2013-6-5,100.4,82.6,69.6,50.4,37.5,18.8,48,22,10,29.69,29.59,20,8,27,0.00
2013-6-6,103.3,85.1,71.8,52.9,44.0,24.4,46,28,10,29.65,29.56,20,8,27,0.00
2013-6-7,111.6,88.0,69.8,52.0,43.5,27.4,47,25,10,29.62,29.51,21,7,28,0.00
2013-6-8,108.9,90.5,76.1,54.3,37.5,20.4,36,17,10,29.61,29.51,24,8,34,0.00
2013-6-9,97.2,84.8,73.4,42.5,31.8,22.5,25,16,10,29.63,29.57,20,6,27,0.00
2013-6-10,85.1,73.3,59.4,49.0,39.8,13.1,54,32,11,29.68,29.58,21,7,30,0.00
2013-6-11,98.4,82.8,67.1,42.6,32.2,17.7,39,19,10,29.69,29.63,18,8,25,0.00
2013-6-12,93.9,80.7,70.5,49.4,35.1,17.7,43,21,10,29.71,29.65,19,7,26,0.18
2013-6-13,96.1,78.9,63.7,50.7,40.2,27.1,58,30,10,29.73,29.65,17,5,24,0.00
2013-6-14,97.5,77.1,58.3,42.8,29.6,17.8,41,19,10,29.68,29.56,18,5,25,0.00
2013-6-15,90.5,75.7,59.5,45.7,30.5,12.2,51,21,10,29.70,29.59,21,7,30,0.00
2013-6-16,97.2,80.0,66.2,37.5,29.2,15.5,34,17,10,29.75,29.67,18,8,27,0.00
2013-6-17,97.3,81.2,68.9,39.3,29.8,15.8,33,17,10,29.74,29.65,20,10,28,0.00
2013-6-18,93.4,78.5,64.2,49.6,38.2,23.7,52,26,10,29.69,29.58,19,7,26,0.00
2013-6-19,91.4,72.5,56.8,45.2,28.4,9.9,47,24,10,29.66,29.58,17,10,27,0.00
2013-6-20,96.1,76.1,61.2,37.0,26.1,12.6,38,18,10,29.65,29.57,24,8,30,0.00
2013-6-21,94.8,78.1,60.4,46.4,34.4,21.8,37,22,10,29.65,29.59,19,6,27,0.00
2013-6-22,98.8,80.2,66.6,51.5,37.9,22.0,47,24,10,29.66,29.55,21,7,27,0.00
2013-6-23,86.9,73.9,64.2,53.7,47.3,39.5,66,41,23,29.59,29.52,19,12,28,0.00
2013-6-24,77.4,66.8,57.6,55.6,52.8,48.1,78,62,44,29.67,29.54,23,12,32,0.00
2013-6-25,96.3,78.7,62.4,57.1,53.5,50.2,74,45,23,29.72,29.64,21,11,27,0.00
2013-6-26,101.8,85.0,68.7,58.1,54.5,47.9,61,38,17,29.77,29.68,21,6,25,0.00
2013-6-27,104.5,88.6,73.0,58.2,51.5,42.2,52,30,14,29.80,29.74,17,5,24,0.00
2013-6-28,108.7,91.5,76.8,56.0,49.8,36.2,44,26,11,29.79,29.65,19,6,27,0.00
2013-6-29,112.6,94.8,79.3,56.5,45.8,30.0,38,21,10,29.71,29.58,14,5,24,0.00
2013-6-30,113.9,95.5,80.4,48.3,41.5,36.2,25,17,10,29.64,29.52,16,6,23,0.00
2013-7-1,107.2,92.2,82.0,54.5,44.3,29.8,34,21,10,29.68,29.57,24,9,30,0.00
2013-7-2,103.8,90.8,80.2,50.5,43.0,33.3,30,20,10,29.74,29.66,24,10,33,0.00
2013-7-3,108.1,91.4,82.6,51.9,46.9,38.9,34,23,11,29.70,29.53,22,10,30,0.00
2013-7-4,105.4,90.6,80.1,51.4,48.2,42.1,35,25,12,29.60,29.50,24,10,31,0.00
2013-7-5,100.2,86.4,78.6,55.1,50.1,45.3,37,29,19,29.57,29.50,20,11,29,0.00
2013-7-6,99.7,86.3,76.3,55.7,44.8,34.4,39,25,13,29.57,29.52,21,8,29,0.00
2013-7-7,103.8,88.0,72.5,48.6,38.1,26.9,42,20,10,29.65,29.55,20,7,27,0.00
2013-7-8,106.7,91.1,76.6,44.9,35.6,24.1,27,15,10,29.72,29.64,16,5,23,0.00
2013-7-9,105.3,93.7,80.8,51.3,42.8,23.7,32,18,10,29.95,29.68,21,10,31,0.00
2013-7-10,102.0,86.5,77.9,55.7,40.3,28.5,44,22,10,29.95,29.83,24,9,30,0.00
2013-7-11,93.7,79.9,71.4,54.9,50.1,40.1,55,37,21,29.91,29.82,19,8,28,0.00
2013-7-12,97.2,82.8,71.2,54.3,45.6,27.2,54,30,10,29.89,29.81,18,8,28,0.00
2013-7-13,104.0,87.2,71.2,51.3,39.9,28.9,42,22,10,29.91,29.83,17,6,24,0.00
2013-7-14,105.3,89.5,73.4,45.0,33.8,27.3,31,15,10,29.91,29.80,17,6,24,0.00
2013-7-15,97.2,85.0,70.2,38.9,32.0,23.9,28,16,10,29.85,29.77,23,7,32,0.00
2013-7-16,96.3,80.3,62.1,35.2,23.7,8.3,28,13,10,29.91,29.77,19,6,26,0.00
2013-7-17,102.0,84.4,66.6,38.6,27.7,14.5,32,14,10,29.96,29.89,18,6,24,0.00
2013-7-18,108.0,86.3,69.8,39.6,28.5,16.9,22,13,10,29.95,29.81,16,4,23,0.00
2013-7-19,107.4,88.2,70.5,45.3,34.8,23.2,31,16,10,29.87,29.75,24,6,33,0.00
2013-7-20,103.3,88.2,77.0,60.1,46.4,32.2,49,26,10,29.81,29.71,21,8,27,0.00
2013-7-21,93.0,82.6,70.9,61.9,58.5,53.0,68,44,34,29.91,29.75,19,6,26,0.05
2013-7-22,95.7,80.9,66.6,68.0,60.4,47.8,84,53,32,29.93,29.84,20,6,29,0.08
2013-7-23,98.6,83.8,69.8,65.1,56.6,44.0,61,41,26,29.95,29.85,21,7,27,0.00
2013-7-24,102.6,87.0,72.9,57.5,53.5,48.7,53,34,18,29.92,29.82,17,8,25,0.00
2013-7-25,103.5,89.3,77.7,54.3,48.2,35.7,35,26,10,29.95,29.85,19,8,30,0.00
2013-7-26,93.0,85.7,79.0,61.0,52.8,48.4,47,33,25,30.02,29.93,14,5,20,0.00
2013-7-27,102.9,87.1,77.2,58.8,53.4,43.9,46,32,18,29.96,29.80,22,7,30,0.00
2013-7-28,95.7,84.2,75.2,52.8,39.5,15.8,45,24,10,29.84,29.75,20,10,36,0.00
2013-7-29,94.3,82.6,73.6,42.2,28.0,13.7,32,14,10,29.96,29.80,19,9,27,0.00
2013-7-30,99.1,83.4,70.0,46.7,34.4,18.9,39,19,10,30.01,29.92,17,5,30,0.00
2013-7-31,99.5,80.3,64.0,51.9,42.6,26.1,51,29,10,30.00,29.88,21,6,29,0.00
2013-8-1,98.1,81.6,67.1,51.3,39.1,23.1,43,25,10,29.93,29.83,13,7,21,0.00
2013-8-2,94.5,79.6,66.0,44.0,34.6,18.7,40,21,10,29.88,29.83,20,8,27,0.00
2013-8-3,97.5,81.3,67.8,42.2,31.9,16.7,37,19,10,29.91,29.84,18,7,25,0.00
2013-8-4,100.2,82.3,67.5,45.0,28.9,14.4,35,16,10,30.01,29.85,20,7,30,0.00
2013-8-5,98.2,82.7,65.7,38.8,27.4,11.6,30,14,10,29.93,29.83,19,6,27,0.00
2013-8-6,94.6,80.5,65.1,39.3,23.3,7.5,33,13,10,29.96,29.87,21,7,31,0.00
2013-8-7,91.8,76.6,60.6,44.0,33.5,18.1,42,24,10,29.96,29.91,18,7,27,0.00
2013-8-8,92.1,75.9,61.2,48.1,35.6,16.8,53,27,10,29.93,29.84,18,6,30,0.00
2013-8-9,92.8,76.9,64.8,44.6,30.9,12.7,42,21,10,29.90,29.83,20,8,27,0.00
2013-8-10,94.5,78.1,65.3,50.1,42.5,26.5,45,30,14,29.93,29.87,15,7,22,0.00
2013-8-11,98.1,80.4,65.3,46.7,40.6,19.5,45,27,10,29.92,29.82,18,6,25,0.00
2013-8-12,102.2,82.8,67.1,48.3,39.9,31.6,41,24,10,29.90,29.83,16,6,23,0.00
2013-8-13,103.8,85.5,68.4,42.9,34.2,19.1,33,18,10,29.93,29.84,12,5,20,0.00
2013-8-14,105.1,88.3,72.5,42.0,30.8,18.2,24,13,10,29.90,29.82,16,5,20,0.00
2013-8-15,104.2,87.6,73.6,42.3,29.6,17.0,26,13,10,29.93,29.84,17,5,27,0.00
2013-8-16,101.7,87.7,74.8,53.1,45.0,37.1,31,23,12,29.93,29.85,23,7,32,0.00
2013-8-17,103.3,88.0,75.2,45.4,37.6,29.2,28,18,10,29.92,29.80,14,7,21,0.00
2013-8-18,104.7,87.1,71.1,59.8,43.8,31.9,48,24,10,29.92,29.76,14,3,24,0.00
2013-8-19,104.2,85.6,71.6,62.0,56.6,41.7,64,39,21,29.95,29.81,16,3,21,0.00
2013-8-20,101.8,86.0,71.6,54.0,42.9,27.8,47,25,10,29.88,29.80,17,5,24,0.00
2013-8-21,103.1,86.0,70.2,46.5,37.2,27.3,37,20,10,29.90,29.82,20,4,30,0.00
2013-8-22,100.6,85.7,70.0,45.1,35.2,18.2,33,18,10,29.91,29.81,15,4,26,0.00
2013-8-23,100.9,83.7,68.2,44.8,31.5,16.7,28,16,10,29.85,29.74,18,4,26,0.00
2013-8-24,100.0,81.8,62.2,44.4,28.5,15.1,36,16,10,29.87,29.76,17,4,24,0.00
2013-8-25,98.6,81.5,62.4,44.9,30.7,15.2,40,17,10,29.92,29.82,21,4,34,0.00
2013-8-26,97.5,79.2,64.6,63.6,52.6,28.7,60,41,18,29.96,29.82,20,4,30,0.00
2013-8-27,97.2,81.0,69.4,65.5,60.8,56.8,77,53,30,29.88,29.75,15,3,21,0.00
2013-8-28,99.9,83.8,70.9,62.7,57.4,52.5,65,43,24,29.91,29.79,15,4,26,0.00
2013-8-29,104.4,87.2,71.8,55.8,51.4,47.2,51,31,15,29.96,29.85,17,4,21,0.00
2013-8-30,103.3,85.6,71.1,65.7,57.1,47.8,58,39,21,29.99,29.87,18,4,27,0.00
2013-8-31,95.5,83.4,75.7,65.8,64.7,62.7,71,55,35,29.95,29.84,21,8,30,0.00
2013-9-1,96.1,82.9,74.1,65.3,62.1,58.6,73,51,30,29.91,29.83,19,7,24,0.00
2013-9-2,99.1,84.9,73.0,61.6,55.9,49.4,62,40,21,29.90,29.80,20,6,25,0.00
2013-9-3,100.8,86.2,74.5,59.9,53.4,49.3,51,34,19,29.91,29.82,17,4,25,0.00
2013-9-4,104.9,86.7,72.7,57.7,52.2,43.1,51,33,13,29.94,29.83,16,4,26,0.00
2013-9-5,103.5,87.5,73.0,57.9,49.4,40.1,49,29,12,29.91,29.82,19,4,26,0.00
2013-9-6,104.0,86.5,70.3,52.5,45.0,39.0,46,26,12,29.91,29.79,17,4,25,0.00
2013-9-7,104.2,85.9,69.6,48.4,38.7,29.3,39,21,10,29.91,29.79,17,4,23,0.00
2013-9-8,104.7,86.2,73.8,46.1,38.1,30.9,31,20,10,29.85,29.73,17,4,22,0.00
2013-9-9,102.0,83.1,73.2,57.2,46.1,34.7,48,30,10,29.84,29.69,20,6,28,0.00
2013-9-10,95.7,81.1,72.7,43.0,36.9,31.5,32,22,11,29.84,29.72,21,10,28,0.00
2013-9-11,92.1,78.0,71.2,39.6,35.1,31.7,28,22,13,29.91,29.84,16,8,22,0.00
2013-9-12,104.0,84.6,71.6,46.0,40.3,30.3,37,22,12,29.95,29.83,17,6,23,0.00
2013-9-13,102.0,83.5,67.5,50.1,41.4,34.3,41,24,10,29.94,29.79,12,4,17,0.00
2013-9-14,104.2,84.8,69.3,53.1,43.1,32.8,44,26,10,29.86,29.76,14,3,21,0.00
2013-9-15,101.7,85.1,68.4,50.2,40.3,31.9,47,23,10,29.91,29.81,19,5,32,0.00
2013-9-16,100.2,82.9,70.2,47.0,34.1,24.4,31,18,10,29.95,29.85,17,4,24,0.00
2013-9-17,93.6,77.6,67.3,46.8,32.1,24.1,44,21,10,29.89,29.79,19,6,27,0.00
2013-9-18,95.4,74.5,57.6,52.7,39.8,26.0,51,33,10,29.89,29.81,14,3,20,0.00
2013-9-19,100.0,77.7,57.6,48.2,36.3,24.1,52,27,10,29.94,29.83,15,3,21,0.00
2013-9-20,94.5,75.9,65.5,54.9,41.8,24.2,62,31,13,29.91,29.81,20,6,34,0.00
2013-9-21,81.0,67.6,57.2,52.4,48.4,35.2,74,52,27,29.91,29.82,21,8,30,0.00
2013-9-22,79.7,62.7,52.5,47.0,40.3,33.6,70,47,20,29.96,29.86,21,8,30,0.00
2013-9-23,93.2,69.7,50.7,46.8,36.4,25.6,67,36,10,30.05,29.95,11,2,17,0.00
2013-9-24,92.8,76.0,63.0,41.1,31.0,20.2,35,21,10,30.01,29.88,19,6,30,0.00
2013-9-25,80.8,67.0,54.3,52.5,42.3,32.1,62,42,21,29.88,29.74,21,7,30,0.00
2013-9-26,74.1,59.1,50.9,40.2,33.5,21.1,61,41,14,29.97,29.78,17,10,27,0.00
2013-9-27,80.4,61.4,45.3,40.2,24.9,14.3,65,29,10,30.11,29.96,10,3,17,0.00
2013-9-28,88.0,66.3,48.2,38.2,23.8,13.7,55,23,10,30.16,30.05,10,2,15,0.00
2013-9-29,94.1,74.6,55.0,36.3,24.8,16.9,34,17,10,30.13,30.04,29,6,29,0.00
2013-9-30,91.0,74.9,60.4,42.2,30.4,22.9,51,21,10,30.07,29.95,16,6,24,0.00
2013-10-1,88.9,73.2,58.6,48.1,37.6,21.5,51,30,14,29.98,29.91,17,5,23,0.00
2013-10-2,86.2,69.8,57.7,53.7,44.0,31.0,70,41,20,29.98,29.91,21,6,30,0.00
2013-10-3,85.3,66.0,52.5,40.5,29.3,15.1,48,28,10,30.00,29.85,17,6,26,0.00
2013-10-4,76.1,60.9,47.7,30.8,15.6,7.2,42,19,10,30.22,30.00,14,5,24,0.00
2013-10-5,85.5,60.5,44.8,39.4,18.1,-41.7,49,22,10,30.32,29.60,14,4,24,2.43
2013-10-6,88.7,64.6,45.0,25.2,14.7,4.3,34,16,10,29.93,29.76,8,2,13,0.00
2013-10-7,87.8,68.2,53.1,28.4,14.9,-46.4,29,13,10,29.76,29.60,14,4,100,0.00
2013-10-8,80.8,66.1,54.0,46.5,30.4,16.9,70,30,10,29.63,29.45,21,8,28,0.00
2013-10-9,54.0,50.1,44.1,45.8,42.4,37.6,83,75,61,29.49,29.38,17,6,28,0.12
2013-10-10,70.0,53.9,42.8,43.8,39.5,35.4,80,60,34,29.69,29.49,19,9,26,0.00
2013-10-11,82.0,61.6,49.8,42.3,38.1,30.0,70,45,16,29.76,29.65,14,4,19,0.00
2013-10-12,81.7,63.1,47.8,41.5,35.2,23.1,69,39,12,29.70,29.59,17,4,24,0.00
2013-10-13,75.2,60.9,48.2,44.2,36.0,26.1,67,41,22,29.75,29.59,14,5,23,0.00
2013-10-14,78.8,58.8,43.0,40.4,31.2,21.9,77,40,14,29.85,29.71,8,2,14,0.00
2013-10-15,79.9,60.6,45.1,32.9,24.2,16.2,53,28,10,29.78,29.69,9,3,14,0.00
2013-10-16,78.8,59.6,43.0,26.4,19.0,11.7,42,23,10,29.90,29.77,8,3,14,0.00
2013-10-17,86.2,64.4,48.6,36.8,24.4,16.4,58,24,10,29.80,29.66,8,2,12,0.00
2013-10-18,86.2,64.4,49.1,37.1,22.7,8.9,59,23,10,29.82,29.71,8,2,11,0.00
2013-10-19,88.5,65.2,46.9,31.4,19.3,10.3,49,19,10,29.84,29.72,11,2,15,0.00
2013-10-20,91.4,68.7,51.6,37.6,23.3,15.0,34,19,10,29.74,29.61,14,3,21,0.00
2013-10-21,88.5,67.3,50.0,33.4,20.8,8.6,39,20,10,29.76,29.66,6,2,8,0.00
2013-10-22,79.9,58.8,49.1,37.9,27.2,17.6,61,32,10,30.11,30.00,4,2,9,0.00
2013-10-23,67.5,66.3,65.1,27.6,24.1,21.6,23,20,18,29.93,29.92,7,4,10,0.00
2013-10-24,90.0,69.9,54.5,45.5,25.9,18.0,40,21,10,30.04,29.93,15,4,20,0.00
2013-10-25,89.2,70.3,56.5,32.6,23.4,15.7,33,18,10,30.13,30.03,6,2,10,0.00
2013-10-26,87.8,68.5,52.9,31.4,23.1,12.2,37,20,10,30.16,30.03,9,2,13,0.00
2013-10-27,84.0,66.2,53.6,45.9,28.5,14.3,74,28,10,30.03,29.73,17,6,29,0.00
2013-10-28,60.4,51.4,46.4,47.2,41.0,35.2,81,69,39,29.89,29.70,20,10,35,0.01
2013-10-29,63.3,51.0,43.9,42.2,39.9,37.9,84,67,40,29.98,29.88,14,6,22,0.02
2013-10-30,69.1,52.3,39.2,39.4,32.9,26.1,82,51,25,30.08,29.97,10,2,14,0.00
2013-10-31,72.7,53.6,38.3,37.9,28.4,20.5,71,42,16,30.17,30.07,6,2,11,0.00
2013-11-1,78.6,57.8,41.4,29.8,23.6,16.9,49,29,10,30.20,30.06,7,2,11,0.00
2013-11-2,80.4,61.2,46.8,32.1,25.6,16.3,48,28,10,30.09,29.88,14,3,22,0.00
2013-11-3,74.8,60.8,50.9,44.7,35.8,26.8,76,42,21,29.90,29.79,16,6,24,0.00
2013-11-4,70.3,54.8,45.3,45.3,33.6,23.2,81,49,19,30.00,29.76,14,3,23,0.00
2013-11-5,64.9,49.7,36.7,26.8,13.9,-0.1,59,29,10,30.24,30.00,11,3,19,0.00
2013-11-6,71.4,51.5,35.6,13.6,7.8,1.0,34,18,10,30.33,30.22,8,2,12,0.00
2013-11-7,74.1,56.3,41.9,22.4,13.1,5.9,33,19,10,30.24,30.06,6,2,9,0.00
2013-11-8,77.9,60.9,44.1,24.0,16.4,8.5,35,19,10,30.08,29.95,14,3,19,0.00
2013-11-9,77.4,59.7,48.2,27.5,17.7,10.1,39,21,10,30.09,29.99,8,2,14,0.00
2013-11-10,75.9,57.6,42.4,24.3,17.0,11.4,43,22,10,30.18,30.08,6,2,9,0.00
2013-11-11,77.4,58.5,43.0,27.7,18.0,13.8,52,22,10,30.19,30.10,5,2,8,0.00
2013-11-12,72.3,59.3,50.2,34.1,20.1,14.5,42,23,11,30.26,30.18,4,2,7,0.00
2013-11-13,79.9,61.5,47.8,29.9,19.1,8.6,41,21,10,30.18,30.04,5,2,8,0.00
2013-11-14,81.0,64.1,46.4,32.8,24.6,17.4,45,25,10,30.08,29.78,10,2,14,0.00
2013-11-15,69.8,58.8,35.1,55.3,37.9,24.9,73,48,25,29.78,29.66,17,6,103,0.02
2013-11-16,63.0,39.9,0.0,44.3,39.9,-33.1,79,50,10,30.24,29.72,155,8,155,0.00
2013-11-17,68.0,57.3,45.5,44.4,37.9,31.0,73,51,30,30.24,30.13,6,2,11,0.00
2013-11-18,108.1,53.7,41.7,46.2,40.4,33.0,80,63,10,30.28,30.15,17,4,26,0.00
2013-11-19,65.7,55.6,48.0,45.1,41.3,-4.2,82,61,10,30.18,30.04,30,10,30,0.00
2013-11-20,67.5,55.7,20.7,48.0,44.5,-27.2,81,68,10,30.07,29.96,21,10,30,0.00
2013-11-21,60.8,51.4,42.1,53.6,46.5,39.9,93,84,57,30.10,29.95,11,3,15,0.47
2013-11-22,43.0,40.8,39.4,40.3,38.2,36.3,94,90,84,30.17,30.09,8,3,17,0.31
2013-11-23,47.1,42.4,39.6,41.2,39.1,37.5,94,88,74,30.26,30.16,8,3,13,0.07
2013-11-24,57.7,45.4,37.2,46.2,39.2,35.6,96,80,53,30.35,30.24,5,2,10,0.00
2013-11-25,64.8,47.6,36.1,42.8,37.3,32.4,88,70,37,30.42,30.33,5,2,8,0.00
2013-11-26,64.8,49.5,38.5,42.3,38.0,33.2,85,66,39,30.40,30.26,5,2,9,0.00
2013-11-27,62.4,50.1,41.7,41.7,38.5,34.7,79,65,46,30.27,30.08,5,2,8,0.00
2013-11-28,60.3,48.1,39.2,39.7,36.6,32.9,80,65,44,30.22,30.09,6,2,8,0.00
2013-11-29,53.6,47.9,42.1,44.3,39.0,34.4,83,71,61,30.35,30.22,4,1,5,0.04
2013-11-30,66.2,50.6,40.3,40.8,37.1,33.6,84,62,33,30.39,30.29,5,2,8,0.00
2013-12-1,66.6,50.2,38.1,37.6,33.3,29.9,76,54,30,30.45,30.34,5,2,11,0.00
2013-12-2,74.7,56.8,39.2,38.7,26.3,14.4,66,36,12,30.35,30.04,14,4,21,0.00
2013-12-3,67.5,54.9,39.6,46.8,33.4,21.6,85,49,23,30.04,29.84,21,8,31,0.01
2013-12-4,50.9,39.6,33.6,28.9,20.2,13.9,64,47,25,30.10,29.91,21,4,30,0.00
2013-12-5,48.7,36.5,28.6,19.4,15.6,10.9,56,44,22,30.19,30.07,6,2,11,0.00
2013-12-6,52.0,38.2,25.7,33.4,24.2,13.5,76,58,37,30.24,30.14,12,4,24,0.00
2013-12-7,44.1,38.1,32.4,39.8,29.9,19.0,90,73,56,30.19,30.05,24,10,34,0.04
2013-12-8,44.2,32.8,24.3,24.2,16.3,12.1,68,52,31,30.34,30.18,11,2,17,0.00
2013-12-9,44.1,30.3,20.3,14.6,2.7,-10.0,69,37,10,30.53,30.33,12,4,24,0.00
2013-12-10,49.3,31.1,19.0,5.4,1.5,-4.2,45,30,12,30.52,30.30,5,2,8,0.00
2013-12-11,54.3,36.1,23.4,12.7,7.8,1.1,47,33,13,30.42,30.33,6,2,8,0.00
2013-12-12,60.4,43.2,29.1,17.9,12.7,8.9,49,31,14,30.39,30.26,7,2,11,0.00
2013-12-13,65.7,51.5,36.3,20.2,11.8,4.3,38,21,10,30.42,30.23,17,3,24,0.00
2013-12-14,61.0,44.6,31.1,22.6,16.6,12.7,54,34,16,30.54,30.41,11,3,20,0.00
2013-12-15,63.0,46.3,33.4,22.0,19.4,17.1,54,36,17,30.52,30.38,6,2,9,0.00
2013-12-16,65.5,49.7,38.8,26.3,20.8,17.0,46,33,16,30.45,30.35,4,2,6,0.00
2013-12-17,68.9,52.4,40.8,28.5,22.3,17.1,49,33,14,30.42,30.23,5,1,8,0.00
2013-12-18,66.0,55.0,48.7,42.4,28.7,21.6,73,39,20,30.24,29.88,18,3,30,0.00
2013-12-19,54.5,46.2,37.8,41.0,37.8,32.8,84,73,56,29.96,29.81,24,7,36,0.00
2013-12-20,55.0,42.0,32.5,36.8,27.1,18.4,88,59,30,30.08,29.95,5,2,10,0.01
2013-12-21,67.6,45.4,-20.6,38.2,26.3,-29.3,62,48,29,30.20,30.00,15,4,49,0.02
2013-12-22,62.1,46.5,34.7,35.7,30.8,27.5,77,56,33,30.44,30.20,4,2,8,0.00
2013-12-23,63.9,46.6,35.2,32.5,29.3,25.9,70,53,29,30.54,30.43,6,2,11,0.00
2013-12-24,65.7,48.5,39.7,34.7,30.6,28.1,69,52,30,30.46,30.34,5,2,7,0.00
2013-12-25,64.6,47.4,35.1,32.8,23.1,13.2,71,43,15,30.50,30.39,8,2,14,0.00
2013-12-26,64.4,37.9,4.8,19.0,8.3,-10.9,47,32,12,30.45,29.81,6,2,8,0.00
2013-12-27,65.7,48.9,34.0,19.4,9.8,3.1,42,23,10,29.88,29.70,4,2,8,0.00
2013-12-28,74.7,53.6,40.1,20.6,10.1,2.1,29,19,10,29.70,29.55,14,2,20,0.00
2013-12-29,63.0,46.1,34.3,16.0,7.3,-0.6,37,22,10,29.83,29.68,11,3,19,0.00
2013-12-30,63.7,45.3,32.7,14.2,8.1,3.0,36,24,10,29.90,29.79,7,2,11,0.00
2013-12-31,67.3,47.2,33.6,15.0,10.8,4.6,38,25,10,29.83,29.71,5,2,9,0.00
2014-1-1,66.6,47.6,34.2,17.9,12.6,4.6,42,26,10,29.84,29.75,5,2,8,0.00
2014-1-2,67.8,49.7,36.3,24.0,20.7,16.8,48,33,16,29.82,29.69,5,2,8,0.00